Friday, January 18, 2019, 11:51 PM EST
Back to Local

KNEL, Lakehurst Naval Air Station

Location: Lakehurst, NJ, United States Lat: 40.033
Local Time: 11:51 PM EST ( 4:51 GMT) Lon: -74.317
Time Zone: US/Eastern Elev: 101 ft

Show me the last for .
Show Decoded

2019-01-18 23:00 METAR KNEL 190400Z AUTO 00000KT BKN055 A3017 RMK AO2 SLPNO PNO $ =
2019-01-18 22:00 METAR KNEL 190300Z AUTO 27005KT OVC060 A3017 RMK AO2 SLPNO 6//// 52010 PNO $ =
2019-01-18 21:00 METAR KNEL 190200Z AUTO 00000KT BKN060 A3013 RMK AO2 SLPNO PNO $ =
2019-01-18 20:00 METAR KNEL 190100Z AUTO 27004KT CLR A3013 RMK AO2 SLPNO PNO $ =
2019-01-18 19:16 METAR KNEL 190016Z AUTO 30004KT SCT010 A3010 RMK AO2 PNO $ =
2019-01-18 19:07 METAR KNEL 190007Z AUTO 30003KT BKN010 A3010 RMK AO2 PNO $ =
2019-01-18 19:00 METAR KNEL 190000Z AUTO 29005KT BKN009 A3010 RMK AO2 CIG 009V013 SLPNO 6////
                 51017 PNO $ =
2019-01-18 18:00 METAR KNEL 182300Z AUTO 29007KT OVC009 A3010 RMK AO2 SLPNO PNO $ =
2019-01-18 17:00 METAR KNEL 182200Z AUTO 28007KT OVC009 A3008 RMK AO2 SLPNO PNO $ =
2019-01-18 16:00 METAR KNEL 182100Z AUTO 29007KT BKN007 OVC023 A3008 RMK AO2 CIG 005V011 SLPNO
                 6//// 55007 PNO $ =
2019-01-18 15:07 METAR KNEL 182007Z AUTO 29004KT OVC006 A3006 RMK AO2 CIG 005V010 PNO $ =
2019-01-18 15:00 METAR KNEL 182000Z AUTO 30003KT 1 1/4SM BR OVC006 03/02 A3005 RMK AO2 CIG
                 004V010 SLPNO T00280017 PNO $ =
2019-01-18 14:14 METAR KNEL 181914Z 00000KT 1 1/4SM BR OVC006 03/02 A3004 RMK AO2 T00280017 PNO $
                 =
2019-01-18 14:07 METAR KNEL 181907Z 00000KT OVC006 A3004 RMK AO2 PNO $ =
2019-01-18 14:00 METAR KNEL 181900Z AUTO 00000KT 1SM BR OVC006 03/02 A3004 RMK AO2 SLPNO
                 T00280022 PNO $ =
2019-01-18 13:38 METAR KNEL 181838Z AUTO 00000KT 1SM BR BKN007 OVC015 03/02 A3005 RMK AO2
                 T00280022 PNO $ =
2019-01-18 13:07 METAR KNEL 181807Z 00000KT OVC007 A3006 RMK AO2 PNO $ =
2019-01-18 13:00 METAR KNEL 181800Z 00000KT 2 1/2SM BR BKN007 OVC018 03/02 A3006 RMK AO2 SLPNO
                 6//// T00280022 58009 PNO $ =
2019-01-18 12:42 METAR KNEL 181742Z 00000KT 2 1/2SM BR BKN007 OVC018 03/02 A3006 RMK AO2
                 T00280022 PNO $ =
2019-01-18 12:13 METAR KNEL 181713Z 00000KT FEW006 OVC018 A3007 RMK AO2 PNO $ =
2019-01-18 12:06 METAR KNEL 181706Z 00000KT 2 1/2SM BR FEW006 OVC020 03/02 A3007 RMK AO2 SLPNO
                 T00280017 PNO $ =
2019-01-18 12:00 METAR KNEL 181700Z 00000KT 2 1/2SM BR SCT006 OVC020 03/02 A3008 RMK AO2 PNO $ =
2019-01-18 11:47 METAR KNEL 181647Z 00000KT 2 1/2SM BR BKN006 OVC020 03/02 A3008 RMK AO2
                 T00280017 PNO $ =
2019-01-18 11:07 METAR KNEL 181607Z 00000KT BKN005 OVC027 A3010 =
2019-01-18 11:00 METAR KNEL 181600Z 00000KT 2SM BR BKN005 OVC028 02/01 A3010 RMK AO2 SLPNO
                 T00170011 PNO $ =
2019-01-18 10:53 METAR KNEL 181553Z 00000KT 2SM BR BKN005 OVC033 02/01 A3010 RMK AO2 T00170011
                 PNO $ =
2019-01-18 10:34 METAR KNEL 181534Z 00000KT 2SM BR FEW005 OVC036 02/01 A3010 RMK AO2 T00170011
                 PNO $ =
2019-01-18 10:13 METAR KNEL 181513Z 00000KT OVC041 A3010 RMK AO2 PNO $ =
2019-01-18 10:06 METAR KNEL 181506Z 00000KT 2SM BR FEW004 OVC041 02/01 A3010 RMK AO2 SLPNO 6////
                 T00170006 50003 PNO $ =
2019-01-18 10:00 METAR KNEL 181500Z 00000KT 2SM BR FEW004 OVC043 02/01 A3010 RMK AO2 PNO $ =
2019-01-18 09:43 METAR KNEL 181443Z 06003KT 2SM BR BKN004 OVC045 02/01 A3010 RMK AO2 T00170006
                 PNO $ =
2019-01-18 09:07 METAR KNEL 181407Z 06003KT BKN003 OVC044 A3009 RMK AO2 PNO $ =
2019-01-18 09:00 METAR KNEL 181400Z 06003KT 1 1/2SM BR BKN003 BKN044 OVC070 01/00 A3009 RMK AO2
                 SNB13121340E1315 SLPNO T00170000 PNO $ =
2019-01-18 08:53 METAR KNEL 181353Z 00000KT 1 1/2SM BR BKN003 BKN042 OVC070 01/00 A3009 RMK AO2
                 SNB1240E15 PNO $ =
2019-01-18 08:44 METAR KNEL 181344Z 00000KT 1 1/2SM BR SCT003 OVC070 01/00 A3009 RMK AO2
                 SNB1240E15 PNO $ =
2019-01-18 08:10 METAR KNEL 181310Z 00000KT 3/4SM -SN BR FEW003 SCT024 OVC070 01/00 A3008 RMK AO2
                 SNB1240 PNO $ =
2019-01-18 08:00 METAR KNEL 181300Z 00000KT 3/4SM -SN BR SCT003 BKN025 OVC070 01/00 A3008 =
2019-01-18 07:45 METAR KNEL 181245Z 00000KT 3/4SM -SN BR BKN003 OVC032 01/00 A3009 RMK AO2 SNB40
                 T00110000 PNO $ =
2019-01-18 07:35 METAR KNEL 181235Z 00000KT BKN004 OVC044 A3009 RMK AO2 PNO $ =
2019-01-18 07:15 METAR KNEL 181215Z AUTO 00000KT BKN006 BKN055 OVC090 A3009 =
2019-01-18 07:06 METAR KNEL 181206Z AUTO 00000KT SCT010 BKN050 OVC090 A3009 RMK AO2 SLPNO 6////
                 7//// 56014 PNO $ =
2019-01-18 07:00 METAR KNEL 181200Z AUTO 00000KT SCT010 BKN050 OVC110 A3009 RMK AO2 PNO $ =
2019-01-18 06:57 METAR KNEL 181157Z AUTO 00000KT FEW005 BKN015 OVC070 A3009 =
2019-01-18 06:06 METAR KNEL 181106Z AUTO 06003KT OVC040 A3008 RMK AO2 SLPNO PNO $ =
2019-01-18 06:00 METAR KNEL 181100Z AUTO 00000KT OVC033 A3008 RMK AO2 PNO $ =
2019-01-18 05:49 METAR KNEL 181049Z AUTO 00000KT OVC026 A3009 RMK AO2 PNO $ =
2019-01-18 05:00 METAR KNEL 181000Z AUTO 00000KT FEW006 OVC040 A3010 RMK AO2 SLPNO PNO $ =
2019-01-18 04:53 METAR KNEL 180953Z AUTO 00000KT SCT006 OVC040 A3010 RMK AO2 PNO $ =
2019-01-18 04:00 METAR KNEL 180900Z AUTO 00000KT BKN006 OVC025 A3012 RMK AO2 SLPNO 6//// 58010
                 PNO $ =
2019-01-18 03:00 METAR KNEL 180800Z AUTO 00000KT BKN005 BKN009 OVC028 A3014 RMK AO2 SLPNO PNO $ =
2019-01-18 02:22 METAR KNEL 180722Z AUTO 00000KT OVC008 A3016 RMK AO2 PNO $ =
2019-01-18 02:00 METAR KNEL 180700Z AUTO 00000KT BKN010 OVC015 A3016 RMK AO2 SLPNO PNO $ =
2019-01-18 01:57 METAR KNEL 180657Z AUTO 00000KT BKN010 OVC015 A3016 =
2019-01-18 01:00 METAR KNEL 180600Z AUTO 00000KT BKN019 BKN027 OVC034 A3017 RMK AO2 SLPNO 6////
                 58014 PNO $ =
2019-01-18 00:46 METAR KNEL 180546Z AUTO 00000KT SCT021 BKN028 OVC048 A3018 RMK AO2 PNO $ =
2019-01-18 00:00 METAR KNEL 180500Z AUTO 00000KT SCT046 OVC060 A3019 RMK AO2 SLPNO PNO $ 

Support USWX by starting your Amazon purchase here.